createdAt,value
2022-12-12T00:00:45.967Z,63.63
2022-12-12T00:03:15.925Z,56.65
2022-12-12T00:05:45.801Z,60.38
2022-12-12T00:08:15.579Z,57.90
2022-12-12T00:10:45.518Z,55.67
2022-12-12T00:13:15.351Z,60.92
2022-12-12T00:15:47.760Z,55.97
2022-12-12T00:18:17.578Z,58.63
2022-12-12T00:20:47.323Z,57.65
2022-12-12T00:23:17.050Z,61.25
2022-12-12T00:25:46.839Z,56.67
2022-12-12T00:28:16.596Z,53.03
2022-12-12T00:30:48.997Z,58.20
2022-12-12T00:33:18.726Z,62.45
2022-12-12T00:35:51.902Z,62.83
2022-12-12T00:38:22.360Z,56.75
2022-12-12T00:40:53.221Z,55.58
2022-12-12T00:43:22.954Z,61.38
2022-12-12T00:45:55.764Z,55.92
2022-12-12T00:48:25.506Z,51.25
2022-12-12T00:50:55.365Z,58.03
2022-12-12T00:53:25.644Z,51.92
2022-12-12T00:55:59.490Z,56.45
2022-12-12T00:58:29.666Z,54.47
2022-12-12T01:01:06.565Z,54.13
2022-12-12T01:03:36.873Z,59.42
2022-12-12T01:06:07.468Z,53.60
2022-12-12T01:08:37.486Z,53.85
2022-12-12T01:11:07.692Z,58.28
2022-12-12T01:13:37.797Z,48.22
2022-12-12T01:16:10.853Z,54.47
2022-12-12T01:18:42.007Z,50.75
2022-12-12T01:21:12.393Z,49.67
2022-12-12T01:23:42.720Z,51.28
2022-12-12T01:26:15.289Z,50.63
2022-12-12T01:28:45.972Z,53.15
2022-12-12T01:31:18.541Z,50.88
2022-12-12T01:33:48.555Z,50.92
2022-12-12T01:36:20.829Z,54.63
2022-12-12T01:38:52.896Z,51.05
2022-12-12T01:41:24.136Z,46.72
2022-12-12T01:43:54.039Z,47.95
2022-12-12T01:46:47.776Z,54.88
2022-12-12T01:49:25.544Z,49.63
2022-12-12T01:51:59.519Z,49.42
2022-12-12T01:54:33.640Z,49.95
2022-12-12T01:57:07.888Z,47.80
2022-12-12T01:59:39.525Z,48.83
2022-12-12T02:02:12.721Z,45.22
2022-12-12T02:04:43.670Z,54.55
2022-12-12T02:07:13.482Z,47.95
2022-12-12T02:09:43.756Z,48.05
2022-12-12T02:12:15.805Z,49.90
2022-12-12T02:14:51.811Z,47.22
2022-12-12T02:17:37.954Z,49.47
2022-12-12T02:20:34.028Z,47.78
2022-12-12T02:23:40.772Z,49.10
2022-12-12T02:26:41.242Z,52.17
2022-12-12T02:29:38.996Z,50.67
2022-12-12T02:32:17.332Z,47.65
2022-12-12T02:34:53.004Z,44.58
2022-12-12T02:37:28.494Z,50.00
2022-12-12T02:40:07.216Z,52.78
2022-12-12T02:42:44.757Z,49.63
2022-12-12T02:45:19.621Z,49.08
2022-12-12T02:47:57.152Z,49.35
2022-12-12T02:50:30.834Z,49.78
2022-12-12T02:53:02.777Z,49.03
2022-12-12T02:55:36.270Z,55.65
2022-12-12T02:58:07.820Z,42.65
2022-12-12T03:00:46.454Z,44.22
2022-12-12T03:03:50.044Z,50.33
2022-12-12T03:06:45.841Z,49.35
2022-12-12T03:09:23.714Z,50.42
2022-12-12T03:12:01.969Z,49.33
2022-12-12T03:14:44.873Z,47.38
2022-12-12T03:17:23.410Z,51.03
2022-12-12T03:20:02.545Z,45.25
2022-12-12T03:22:39.565Z,43.47
2022-12-12T03:25:15.408Z,45.60
2022-12-12T03:27:52.218Z,44.97
2022-12-12T03:30:23.781Z,48.80
2022-12-12T03:33:01.389Z,45.85
2022-12-12T03:35:39.397Z,43.88
2022-12-12T03:38:15.340Z,47.40
2022-12-12T03:40:50.477Z,45.88
2022-12-12T03:43:24.404Z,44.33
2022-12-12T03:46:00.322Z,43.22
2022-12-12T03:48:32.309Z,46.97
2022-12-12T03:51:07.850Z,46.28
2022-12-12T03:53:43.416Z,45.80
2022-12-12T03:56:20.333Z,48.60
2022-12-12T03:58:54.390Z,48.50
2022-12-12T04:01:30.574Z,41.33
2022-12-12T04:04:05.866Z,45.63
2022-12-12T04:06:41.613Z,46.97
2022-12-12T04:09:27.673Z,40.33
2022-12-12T04:12:18.488Z,44.58
2022-12-12T04:15:20.748Z,43.42
2022-12-12T04:18:01.373Z,43.50
2022-12-12T04:20:49.224Z,45.95
2022-12-12T04:23:38.292Z,44.42
2022-12-12T04:26:28.996Z,47.63
2022-12-12T04:29:09.545Z,44.28
2022-12-12T04:31:43.570Z,43.42
2022-12-12T04:34:16.979Z,42.03
2022-12-12T04:36:50.458Z,41.05
2022-12-12T04:39:24.247Z,42.28
2022-12-12T04:41:57.538Z,44.55
2022-12-12T04:44:30.437Z,44.60
2022-12-12T04:47:02.427Z,39.92
2022-12-12T04:49:36.126Z,40.80
2022-12-12T04:52:11.009Z,37.88
2022-12-12T04:54:48.867Z,41.58
2022-12-12T04:57:23.195Z,41.58
2022-12-12T04:59:53.283Z,42.45
2022-12-12T05:02:32.902Z,39.22
2022-12-12T05:05:07.165Z,42.08
2022-12-12T05:07:40.699Z,39.58
2022-12-12T05:10:15.974Z,42.60
2022-12-12T05:12:48.013Z,45.58
2022-12-12T05:15:19.250Z,41.05
2022-12-12T05:17:52.248Z,39.00
2022-12-12T05:20:22.061Z,43.25
2022-12-12T05:22:51.843Z,43.88
2022-12-12T05:25:24.271Z,38.95
2022-12-12T05:27:54.060Z,39.58
2022-12-12T05:30:24.765Z,44.28
2022-12-12T05:32:54.966Z,40.33
2022-12-12T05:35:24.877Z,43.75
2022-12-12T05:37:54.669Z,57.95
2022-12-12T05:40:27.029Z,47.38
2022-12-12T05:42:56.864Z,49.33
2022-12-12T05:45:26.882Z,51.05
2022-12-12T05:47:56.651Z,50.08
2022-12-12T05:50:26.424Z,52.10
2022-12-12T05:52:56.185Z,56.13
2022-12-12T05:55:28.499Z,54.00
2022-12-12T05:57:58.251Z,67.00
2022-12-12T06:00:28.010Z,49.35
2022-12-12T06:02:57.832Z,49.25
2022-12-12T06:05:27.617Z,50.17
2022-12-12T06:07:57.414Z,45.30
2022-12-12T06:10:30.836Z,45.63
2022-12-12T06:13:00.602Z,46.22
2022-12-12T06:15:30.498Z,38.90
2022-12-12T06:18:01.086Z,45.00
2022-12-12T06:20:32.616Z,43.08
2022-12-12T06:23:03.538Z,42.15
2022-12-12T06:25:36.281Z,40.20
2022-12-12T06:28:06.112Z,45.25
2022-12-12T06:30:36.952Z,45.33
2022-12-12T06:33:07.054Z,45.15
2022-12-12T06:35:36.794Z,43.75
2022-12-12T06:38:06.640Z,43.25
2022-12-12T06:40:42.102Z,50.05
2022-12-12T06:43:11.900Z,45.20
2022-12-12T06:45:41.726Z,47.70
2022-12-12T06:48:12.543Z,46.03
2022-12-12T06:50:43.014Z,43.67
2022-12-12T06:53:13.787Z,41.80
2022-12-12T06:55:48.951Z,46.85
2022-12-12T06:58:18.871Z,44.80
2022-12-12T07:00:53.692Z,46.70
2022-12-12T07:03:23.550Z,46.83
2022-12-12T07:05:53.447Z,45.47
2022-12-12T07:08:23.286Z,44.55
2022-12-12T07:10:55.730Z,48.75
2022-12-12T07:13:25.976Z,55.53
2022-12-12T07:15:58.966Z,56.35
2022-12-12T07:18:29.058Z,54.50
2022-12-12T07:20:58.870Z,49.67
2022-12-12T07:23:28.790Z,49.97
2022-12-12T07:26:01.281Z,54.15
2022-12-12T07:28:31.117Z,56.60
2022-12-12T07:31:01.389Z,58.10
2022-12-12T07:33:42.660Z,52.85
2022-12-12T07:36:13.586Z,50.83
2022-12-12T07:38:43.887Z,57.00
2022-12-12T07:41:18.887Z,49.13
2022-12-12T07:43:53.080Z,50.00
2022-12-12T07:46:25.943Z,52.22
2022-12-12T07:48:56.801Z,45.95
2022-12-12T07:51:26.653Z,48.35
2022-12-12T07:53:57.448Z,48.85
2022-12-12T07:56:29.923Z,40.95
2022-12-12T07:58:59.799Z,43.17
2022-12-12T08:01:30.872Z,37.15
2022-12-12T08:04:01.988Z,48.45
2022-12-12T08:06:32.905Z,43.88
2022-12-12T08:09:02.678Z,38.45
2022-12-12T08:11:35.077Z,34.55
2022-12-12T08:14:11.069Z,34.22
2022-12-12T08:16:42.724Z,31.50
2022-12-12T08:19:12.597Z,30.48
2022-12-12T08:21:42.381Z,37.17
2022-12-12T08:24:15.420Z,32.67
2022-12-12T08:26:48.157Z,30.23
2022-12-12T08:29:17.971Z,31.48
2022-12-12T08:31:48.914Z,36.20
2022-12-12T08:34:19.769Z,42.45
2022-12-12T08:36:49.665Z,43.45
2022-12-12T08:39:19.527Z,40.45
2022-12-12T08:41:52.182Z,48.03
2022-12-12T08:44:23.301Z,41.33
2022-12-12T08:46:53.192Z,38.50
2022-12-12T08:49:23.048Z,39.17
2022-12-12T08:51:52.908Z,34.75
2022-12-12T08:54:22.843Z,41.72
2022-12-12T08:56:55.273Z,40.65
2022-12-12T08:59:25.387Z,33.35
2022-12-12T09:01:55.324Z,32.80
2022-12-12T09:04:25.618Z,29.63
2022-12-12T09:06:56.142Z,30.35
2022-12-12T09:09:25.920Z,32.85
2022-12-12T09:11:58.382Z,29.00
2022-12-12T09:14:28.246Z,35.03
2022-12-12T09:16:58.033Z,34.17
2022-12-12T09:19:28.015Z,34.40
2022-12-12T09:21:57.863Z,33.90
2022-12-12T09:24:27.862Z,33.05
2022-12-12T09:27:00.356Z,37.30
2022-12-12T09:29:30.664Z,35.33
2022-12-12T09:32:06.331Z,42.38
2022-12-12T09:34:36.194Z,39.00
2022-12-12T09:37:06.082Z,40.60
2022-12-12T09:39:35.883Z,46.92
2022-12-12T09:42:20.330Z,38.63
2022-12-12T09:44:51.266Z,30.02
2022-12-12T09:47:27.529Z,30.85
2022-12-12T09:49:59.313Z,31.25
2022-12-12T09:52:35.689Z,30.38
2022-12-12T09:55:24.109Z,30.42
2022-12-12T09:58:02.444Z,28.48
2022-12-12T10:00:35.805Z,30.40
2022-12-12T10:03:18.363Z,31.38
2022-12-12T10:06:13.851Z,28.90
2022-12-12T10:08:56.060Z,32.00
2022-12-12T10:11:44.457Z,34.63
2022-12-12T10:14:18.812Z,38.47
2022-12-12T10:16:52.424Z,40.38
2022-12-12T10:19:31.854Z,39.05
2022-12-12T10:22:07.328Z,43.20
2022-12-12T10:24:42.865Z,39.60
2022-12-12T10:27:14.801Z,36.78
2022-12-12T10:29:50.673Z,34.97
2022-12-12T10:32:34.038Z,36.72
2022-12-12T10:35:24.542Z,36.38
2022-12-12T10:38:08.677Z,42.42
2022-12-12T10:40:49.810Z,34.13
2022-12-12T10:43:25.525Z,39.60
2022-12-12T10:46:19.199Z,36.33
2022-12-12T10:48:51.329Z,34.97
2022-12-12T10:51:25.696Z,36.58
2022-12-12T10:53:55.610Z,40.72
2022-12-12T10:56:29.018Z,40.67
2022-12-12T10:59:01.460Z,35.60
2022-12-12T11:02:08.390Z,37.78
2022-12-12T11:04:30.046Z,37.13
2022-12-12T11:07:00.248Z,36.42
2022-12-12T11:09:31.519Z,32.35
2022-12-12T11:12:03.486Z,32.50
2022-12-12T11:14:37.466Z,36.15
2022-12-12T11:17:22.946Z,35.33
2022-12-12T11:19:55.632Z,33.85
2022-12-12T11:22:25.714Z,38.95
2022-12-12T11:24:57.354Z,31.17
2022-12-12T11:27:31.380Z,42.42
2022-12-12T11:30:03.759Z,35.95
2022-12-12T11:32:44.013Z,32.53
2022-12-12T11:35:27.158Z,32.97
2022-12-12T11:38:02.263Z,32.23
2022-12-12T11:40:34.840Z,37.40
2022-12-12T11:43:19.440Z,32.92
2022-12-12T11:46:05.001Z,32.25
2022-12-12T11:48:44.616Z,64.68
2022-12-12T11:51:14.605Z,32.20
2022-12-12T11:53:48.266Z,30.77
2022-12-12T11:56:33.201Z,31.67
2022-12-12T11:59:21.368Z,32.28
2022-12-12T12:02:02.668Z,28.77
2022-12-12T12:04:52.744Z,29.08
2022-12-12T12:07:42.046Z,30.40
2022-12-12T12:10:23.933Z,35.67
2022-12-12T12:13:02.529Z,27.38
2022-12-12T12:15:42.635Z,29.27
2022-12-12T12:18:36.996Z,29.95
2022-12-12T12:21:29.383Z,27.20
2022-12-12T12:24:11.481Z,32.07
2022-12-12T12:26:50.477Z,26.60
2022-12-12T12:29:35.463Z,34.78
2022-12-12T12:32:14.882Z,34.28
2022-12-12T12:34:54.980Z,38.33
2022-12-12T12:37:41.917Z,27.52
2022-12-12T12:40:36.401Z,28.70
2022-12-12T12:43:33.962Z,28.70
2022-12-12T12:46:13.765Z,26.73
2022-12-12T12:48:47.320Z,31.70
2022-12-12T12:51:22.093Z,33.78
2022-12-12T12:54:00.956Z,26.45
2022-12-12T12:56:33.627Z,31.53
2022-12-12T12:59:07.484Z,35.70
2022-12-12T13:01:42.951Z,36.33
2022-12-12T13:04:19.688Z,29.52
2022-12-12T13:06:54.328Z,36.13
2022-12-12T13:09:41.118Z,39.22
2022-12-12T13:12:18.084Z,38.03
2022-12-12T13:14:53.809Z,27.80
2022-12-12T13:17:28.057Z,33.22
2022-12-12T13:20:00.382Z,33.22
2022-12-12T13:22:49.852Z,37.00
2022-12-12T13:25:32.447Z,28.30
2022-12-12T13:28:06.082Z,29.60
2022-12-12T13:30:51.162Z,32.87
2022-12-12T13:33:36.498Z,31.48
2022-12-12T13:36:15.382Z,35.53
2022-12-12T13:38:50.681Z,35.27
2022-12-12T13:41:23.193Z,35.20
2022-12-12T13:43:59.247Z,36.72
2022-12-12T13:46:52.678Z,31.58
2022-12-12T13:49:37.301Z,30.88
2022-12-12T13:52:26.511Z,32.50
2022-12-12T13:55:13.113Z,30.33
2022-12-12T13:58:19.569Z,32.10
2022-12-12T14:00:50.216Z,31.07
2022-12-12T14:03:32.951Z,30.65
2022-12-12T14:06:13.567Z,32.97
2022-12-12T14:08:52.417Z,29.20
2022-12-12T14:11:32.398Z,36.87
2022-12-12T14:14:23.206Z,35.90
2022-12-12T14:16:57.883Z,35.33
2022-12-12T14:19:33.101Z,30.60
2022-12-12T14:22:04.081Z,38.40
2022-12-12T14:25:05.386Z,34.33
2022-12-12T14:28:13.736Z,37.40
2022-12-12T14:30:51.800Z,35.80
2022-12-12T14:33:46.258Z,42.70
2022-12-12T14:36:39.235Z,48.95
2022-12-12T14:39:20.564Z,48.17
2022-12-12T14:41:51.225Z,54.65
2022-12-12T14:44:36.656Z,41.97
2022-12-12T14:47:19.019Z,39.13
2022-12-12T14:49:48.806Z,42.45
2022-12-12T14:52:23.710Z,35.77
2022-12-12T14:54:54.665Z,39.23
2022-12-12T14:57:27.401Z,41.93
2022-12-12T14:59:57.363Z,40.28
2022-12-12T15:02:38.988Z,43.05
2022-12-12T15:05:10.843Z,31.58
2022-12-12T15:07:41.963Z,38.88
2022-12-12T15:10:25.802Z,36.30
2022-12-12T15:12:55.573Z,36.53
2022-12-12T15:15:28.868Z,35.13
2022-12-12T15:18:04.094Z,42.72
2022-12-12T15:20:35.154Z,39.85
2022-12-12T15:23:07.164Z,37.45
2022-12-12T15:25:46.019Z,37.90
2022-12-12T15:28:18.416Z,39.43
2022-12-12T15:30:52.424Z,35.13
2022-12-12T15:33:26.333Z,39.25
2022-12-12T15:36:02.132Z,38.40
2022-12-12T15:38:32.683Z,38.30
2022-12-12T15:41:12.772Z,38.17
2022-12-12T15:43:45.044Z,39.00
2022-12-12T15:46:17.946Z,42.30
2022-12-12T15:48:52.233Z,48.63
2022-12-12T15:51:25.374Z,44.83
2022-12-12T15:53:56.792Z,41.65
2022-12-12T15:56:30.594Z,35.17
2022-12-12T15:59:17.945Z,42.88
2022-12-12T16:01:48.765Z,46.20
2022-12-12T16:04:28.613Z,42.55
2022-12-12T16:07:17.255Z,38.85
2022-12-12T16:10:01.030Z,37.53
2022-12-12T16:12:58.620Z,43.72
2022-12-12T16:15:46.163Z,48.70
2022-12-12T16:18:23.780Z,45.78
2022-12-12T16:20:58.277Z,43.43
2022-12-12T16:23:33.471Z,39.70
2022-12-12T16:26:03.296Z,44.60
2022-12-12T16:28:34.089Z,41.50
2022-12-12T16:31:07.592Z,42.67
2022-12-12T16:33:38.774Z,37.50
2022-12-12T16:36:15.007Z,41.70
2022-12-12T16:38:46.142Z,47.63
2022-12-12T16:41:19.815Z,43.20
2022-12-12T16:43:49.769Z,42.97
2022-12-12T16:46:22.167Z,46.75
2022-12-12T16:48:52.757Z,39.92
2022-12-12T16:51:30.631Z,41.90
2022-12-12T16:54:00.715Z,40.75
2022-12-12T16:56:30.707Z,36.72
2022-12-12T16:59:00.458Z,39.88
2022-12-12T17:01:33.397Z,38.90
2022-12-12T17:04:07.425Z,37.35
2022-12-12T17:06:39.828Z,35.08
2022-12-12T17:09:10.569Z,36.53
2022-12-12T17:11:41.000Z,39.63
2022-12-12T17:14:18.698Z,41.42
2022-12-12T17:16:48.597Z,38.67
2022-12-12T17:19:18.786Z,34.80
2022-12-12T17:21:51.306Z,40.95
2022-12-12T17:24:21.137Z,40.90
2022-12-12T17:26:51.275Z,44.25
2022-12-12T17:29:21.149Z,48.83
2022-12-12T17:31:52.321Z,48.05
2022-12-12T17:34:22.229Z,38.42
2022-12-12T17:36:54.622Z,38.55
2022-12-12T17:39:24.743Z,41.88
2022-12-12T17:41:55.883Z,38.55
2022-12-12T17:44:26.077Z,41.15
2022-12-12T17:46:55.886Z,42.17
2022-12-12T17:49:25.726Z,38.30
2022-12-12T17:51:59.163Z,39.05
2022-12-12T17:54:28.884Z,39.28
2022-12-12T17:56:59.661Z,35.95
2022-12-12T17:59:29.494Z,37.63
2022-12-12T18:01:59.305Z,34.05
2022-12-12T18:04:30.162Z,40.03
2022-12-12T18:07:02.526Z,42.22
2022-12-12T18:09:35.585Z,46.55
2022-12-12T18:12:05.517Z,42.90
2022-12-12T18:14:35.369Z,39.03
2022-12-12T18:17:06.592Z,41.35
2022-12-12T18:19:36.347Z,38.63
2022-12-12T18:22:10.740Z,40.58
2022-12-12T18:24:40.904Z,38.53
2022-12-12T18:27:10.728Z,34.42
2022-12-12T18:29:40.987Z,38.60
2022-12-12T18:32:10.764Z,29.23
2022-12-12T18:34:42.639Z,33.28
2022-12-12T18:37:16.470Z,34.47
2022-12-12T18:39:46.328Z,28.38
2022-12-12T18:42:16.193Z,29.52
2022-12-12T18:44:46.985Z,34.90
2022-12-12T18:47:16.805Z,37.63
2022-12-12T18:49:46.594Z,36.28
2022-12-12T18:52:18.982Z,36.45
2022-12-12T18:54:48.818Z,35.85
2022-12-12T18:57:18.597Z,35.50
2022-12-12T18:59:48.408Z,38.80
2022-12-12T19:02:19.502Z,34.13
2022-12-12T19:04:50.288Z,34.70
2022-12-12T19:07:23.621Z,35.78
2022-12-12T19:09:53.458Z,37.50
2022-12-12T19:12:23.174Z,39.35
2022-12-12T19:17:46.396Z,35.47
2022-12-12T19:20:16.587Z,31.70
2022-12-12T19:22:54.151Z,39.42
2022-12-12T19:25:23.895Z,36.78
2022-12-12T19:27:57.542Z,38.03
2022-12-12T19:30:29.339Z,35.05
2022-12-12T19:32:59.271Z,36.97
2022-12-12T19:35:29.049Z,32.92
2022-12-12T19:38:01.436Z,32.13
2022-12-12T19:40:31.195Z,35.30
2022-12-12T19:43:01.010Z,38.17
2022-12-12T19:45:32.856Z,36.97
2022-12-12T19:48:02.790Z,35.67
2022-12-12T19:50:32.596Z,31.55
2022-12-12T19:53:08.210Z,39.47
2022-12-12T19:55:39.770Z,35.15
2022-12-12T19:58:10.562Z,35.55
2022-12-12T20:00:40.323Z,37.08
2022-12-12T20:03:11.501Z,42.50
2022-12-12T20:05:42.345Z,46.17
2022-12-12T20:08:14.765Z,41.13
2022-12-12T20:10:44.605Z,50.13
2022-12-12T20:13:14.321Z,52.10
2022-12-12T20:15:44.175Z,60.60
2022-12-12T20:18:16.693Z,43.63
2022-12-12T20:20:46.545Z,40.03
2022-12-12T20:23:22.178Z,30.25
2022-12-12T20:25:52.107Z,36.28
2022-12-12T20:28:21.905Z,28.08
2022-12-12T20:30:53.532Z,27.85
2022-12-12T20:33:23.479Z,24.35
2022-12-12T20:35:53.288Z,29.25
2022-12-12T20:38:26.794Z,26.85
2022-12-12T20:40:56.607Z,28.35
2022-12-12T20:43:26.558Z,26.88
2022-12-12T20:45:56.453Z,27.48
2022-12-12T20:48:26.235Z,25.95
2022-12-12T20:50:59.960Z,28.80
2022-12-12T20:53:36.371Z,25.95
2022-12-12T20:56:11.029Z,25.98
2022-12-12T20:58:41.819Z,30.20
2022-12-12T21:01:14.083Z,30.40
2022-12-12T21:03:44.501Z,23.17
2022-12-12T21:06:16.590Z,24.55
2022-12-12T21:08:50.603Z,24.38
2022-12-12T21:11:22.509Z,29.17
2022-12-12T21:13:53.299Z,26.05
2022-12-12T21:16:29.911Z,26.80
2022-12-12T21:19:02.108Z,29.00
2022-12-12T21:21:33.173Z,30.90
2022-12-12T21:24:05.924Z,26.00
2022-12-12T21:26:37.409Z,31.88
2022-12-12T21:29:07.715Z,30.48
2022-12-12T21:31:42.326Z,27.33
2022-12-12T21:34:17.637Z,27.73
2022-12-12T21:36:47.488Z,27.48
2022-12-12T21:39:19.954Z,33.03
2022-12-12T21:41:51.271Z,28.48
2022-12-12T21:44:21.734Z,32.10
2022-12-12T21:46:51.698Z,36.28
2022-12-12T21:49:32.014Z,34.10
2022-12-12T21:52:03.432Z,36.67
2022-12-12T21:54:35.936Z,32.40
2022-12-12T21:57:07.764Z,37.78
2022-12-12T21:59:38.851Z,36.50
2022-12-12T22:02:10.676Z,35.60
2022-12-12T22:04:40.521Z,36.35
2022-12-12T22:07:11.926Z,33.75
2022-12-12T22:09:45.058Z,30.52
2022-12-12T22:12:27.602Z,29.52
2022-12-12T22:14:57.401Z,28.45
2022-12-12T22:17:27.244Z,30.83
2022-12-12T22:19:57.488Z,24.92
2022-12-12T22:22:29.023Z,25.15
2022-12-12T22:25:01.403Z,25.85
2022-12-12T22:27:31.204Z,23.08
2022-12-12T22:30:02.088Z,32.65
2022-12-12T22:32:31.992Z,30.92
2022-12-12T22:35:02.797Z,28.55
2022-12-12T22:37:32.661Z,34.00
2022-12-12T22:40:05.090Z,29.90
2022-12-12T22:42:34.869Z,29.17
2022-12-12T22:45:04.759Z,31.77
2022-12-12T22:47:34.612Z,33.55
2022-12-12T22:50:04.515Z,31.25
2022-12-12T22:52:34.376Z,32.25
2022-12-12T22:55:07.543Z,35.38
2022-12-12T22:57:37.407Z,30.98
2022-12-12T23:00:10.533Z,34.97
2022-12-12T23:02:40.363Z,31.77
2022-12-12T23:05:12.812Z,32.05
2022-12-12T23:07:42.996Z,36.05
2022-12-12T23:10:15.435Z,31.20
2022-12-12T23:12:45.209Z,36.75
2022-12-12T23:15:15.211Z,32.05
2022-12-12T23:17:45.168Z,35.30
2022-12-12T23:20:14.969Z,32.33
2022-12-12T23:22:46.495Z,39.33
2022-12-12T23:25:19.150Z,47.97
2022-12-12T23:27:49.981Z,49.17
2022-12-12T23:30:19.927Z,48.55
2022-12-12T23:32:49.749Z,41.47
2022-12-12T23:35:19.713Z,48.00
2022-12-12T23:37:49.558Z,41.45
2022-12-12T23:40:22.004Z,36.28
2022-12-12T23:42:52.842Z,36.90
2022-12-12T23:45:22.674Z,36.30
2022-12-12T23:47:52.437Z,37.20
2022-12-12T23:50:22.378Z,41.58
2022-12-12T23:52:52.204Z,44.33
2022-12-12T23:55:24.585Z,38.40
2022-12-12T23:57:54.502Z,36.83
